Archerfield, Queensland

10:13 AM AEST on March 07, 2015 (GMT +1000)
Darra | Change Station
CLOSE
Current Station
Personal Weather Station
Location: Brisbane, QUEENSLAND
Elevation: 82 ft
Nearby Weather Stations

Elev 82 ft 27.56 °S, 152.96 °E | Updated 4 seconds ago

Partly Cloudy
Partly Cloudy
89.4 °F
Feels Like 93 °F
N
1.3
Wind Variable Wind from South
Gusts 2.5 mph

Today
High -- | Low -- °F
--% Chance of Precip.
Yesterday
High -- | Low -- °F
Precip. -- in
5:43 AM 6:14 PM
Full, 99% visible
Pressure 29.83 in
Visibility 6.2 miles
Clouds Few 2000 ft
Heat Index 93 °F
Dew Point 68 °F
Humidity 50%
Rainfall in
Snow Depth Not available.
UV 2.0 out of 12
Pollen Not available.
Air Quality Not available.
Flu Activity Not available.
METAR YBBN 070000Z 06005KT 9999 FEW020 28/20 Q1010 RMK HZ

More Conditions Fewer Conditions

Pressure 29.83 in
Visibility 6.2 miles
Clouds Few 2000 ft
Heat Index 93 °F
Dew Point 68 °F
Humidity 50%
Rainfall in
Snow Depth Not available.
UV 2.0 out of 12
Pollen Not available.
Air Quality Not available.
Flu Activity Not available.
METAR YBBN 070000Z 06005KT 9999 FEW020 28/20 Q1010 RMK HZ

More Conditions Fewer Conditions

10-Day Weather Forecast

Almanac

Astronomy

Mar. 07, 2015 Rise Set
Actual Time
Civil Twilight
Nautical Twilight
Astronomical Twilight
Moon
Length of Visible Light
Length of Day
Tomorrow will be .
, % of the Moon is Illuminated

Today's Extremes

Country Highs Country Lows

Community

WunderPhotos

Upload Photos

1,803,466 photos uploaded!

WunderBlogs® & News

Nearby

Air Quality

  Air Quality AQ Index Pollutant
Not available.

Snow Depth

Station Depth Elevation

Earthquake Activity

City Distance Mag. Time & Date
Minimum magnitude displayed is 2.5.

Coastal Water Temperatures

Place Temperature

Nearby Weather Stations